sensor_id;sensor_type;location;lat;lon;timestamp;P1;durP1;ratioP1;P2;durP2;ratioP2
75386;SDS011;63966;47.914;22.266;2023-10-19T00:00:13;29.08;;;15.13;;
75386;SDS011;63966;47.914;22.266;2023-10-19T00:03:24;26.60;;;13.33;;
75386;SDS011;63966;47.914;22.266;2023-10-19T00:06:29;28.05;;;13.55;;
75386;SDS011;63966;47.914;22.266;2023-10-19T00:09:33;29.10;;;14.25;;
75386;SDS011;63966;47.914;22.266;2023-10-19T00:12:41;26.45;;;13.80;;
75386;SDS011;63966;47.914;22.266;2023-10-19T00:15:46;28.30;;;14.45;;
75386;SDS011;63966;47.914;22.266;2023-10-19T00:18:50;26.77;;;13.27;;
75386;SDS011;63966;47.914;22.266;2023-10-19T00:21:55;30.80;;;13.57;;
75386;SDS011;63966;47.914;22.266;2023-10-19T00:25:04;26.70;;;13.75;;
75386;SDS011;63966;47.914;22.266;2023-10-19T00:28:10;29.42;;;14.65;;
75386;SDS011;63966;47.914;22.266;2023-10-19T00:31:17;27.55;;;13.60;;
75386;SDS011;63966;47.914;22.266;2023-10-19T00:34:22;29.20;;;12.53;;
75386;SDS011;63966;47.914;22.266;2023-10-19T00:37:27;24.65;;;12.88;;
75386;SDS011;63966;47.914;22.266;2023-10-19T00:40:34;28.23;;;14.27;;
75386;SDS011;63966;47.914;22.266;2023-10-19T00:43:40;29.20;;;13.35;;
75386;SDS011;63966;47.914;22.266;2023-10-19T00:46:47;30.00;;;13.60;;
75386;SDS011;63966;47.914;22.266;2023-10-19T00:50:07;24.77;;;12.87;;
75386;SDS011;63966;47.914;22.266;2023-10-19T00:53:20;29.50;;;13.20;;
75386;SDS011;63966;47.914;22.266;2023-10-19T00:56:25;26.48;;;12.40;;
75386;SDS011;63966;47.914;22.266;2023-10-19T00:59:31;28.15;;;13.93;;
75386;SDS011;63966;47.914;22.266;2023-10-19T01:02:45;28.85;;;14.05;;
75386;SDS011;63966;47.914;22.266;2023-10-19T01:05:53;27.43;;;13.03;;
75386;SDS011;63966;47.914;22.266;2023-10-19T01:08:57;28.85;;;14.02;;
75386;SDS011;63966;47.914;22.266;2023-10-19T01:12:01;29.85;;;13.73;;
75386;SDS011;63966;47.914;22.266;2023-10-19T01:15:27;25.63;;;13.15;;
75386;SDS011;63966;47.914;22.266;2023-10-19T01:18:31;31.02;;;13.68;;
75386;SDS011;63966;47.914;22.266;2023-10-19T01:21:35;27.63;;;13.60;;
75386;SDS011;63966;47.914;22.266;2023-10-19T01:24:40;26.40;;;13.70;;
75386;SDS011;63966;47.914;22.266;2023-10-19T01:27:44;26.77;;;13.30;;
75386;SDS011;63966;47.914;22.266;2023-10-19T01:30:50;26.60;;;13.35;;
75386;SDS011;63966;47.914;22.266;2023-10-19T01:33:54;25.45;;;12.90;;
75386;SDS011;63966;47.914;22.266;2023-10-19T01:37:00;23.43;;;12.50;;
75386;SDS011;63966;47.914;22.266;2023-10-19T01:40:06;23.98;;;12.32;;
75386;SDS011;63966;47.914;22.266;2023-10-19T01:43:10;21.38;;;11.07;;
75386;SDS011;63966;47.914;22.266;2023-10-19T01:46:23;24.73;;;11.82;;
75386;SDS011;63966;47.914;22.266;2023-10-19T01:49:52;24.73;;;13.23;;
75386;SDS011;63966;47.914;22.266;2023-10-19T01:52:56;24.13;;;11.97;;
75386;SDS011;63966;47.914;22.266;2023-10-19T01:56:00;21.45;;;11.80;;
75386;SDS011;63966;47.914;22.266;2023-10-19T01:59:08;28.08;;;12.15;;
75386;SDS011;63966;47.914;22.266;2023-10-19T02:02:11;23.73;;;11.57;;
75386;SDS011;63966;47.914;22.266;2023-10-19T02:05:15;23.30;;;11.60;;
75386;SDS011;63966;47.914;22.266;2023-10-19T02:08:21;20.33;;;10.97;;
75386;SDS011;63966;47.914;22.266;2023-10-19T02:11:27;26.20;;;10.93;;
75386;SDS011;63966;47.914;22.266;2023-10-19T02:14:31;22.05;;;11.25;;
75386;SDS011;63966;47.914;22.266;2023-10-19T02:17:36;23.33;;;11.52;;
75386;SDS011;63966;47.914;22.266;2023-10-19T02:20:39;22.13;;;11.80;;
75386;SDS011;63966;47.914;22.266;2023-10-19T02:23:44;25.03;;;11.93;;
75386;SDS011;63966;47.914;22.266;2023-10-19T02:26:49;24.23;;;10.68;;
75386;SDS011;63966;47.914;22.266;2023-10-19T02:29:54;22.08;;;11.55;;
75386;SDS011;63966;47.914;22.266;2023-10-19T02:33:00;27.27;;;11.68;;
75386;SDS011;63966;47.914;22.266;2023-10-19T02:36:06;24.08;;;12.05;;
75386;SDS011;63966;47.914;22.266;2023-10-19T02:39:18;26.37;;;11.67;;
75386;SDS011;63966;47.914;22.266;2023-10-19T02:42:23;24.10;;;11.68;;
75386;SDS011;63966;47.914;22.266;2023-10-19T02:45:29;23.90;;;11.80;;
75386;SDS011;63966;47.914;22.266;2023-10-19T02:48:33;22.70;;;10.52;;
75386;SDS011;63966;47.914;22.266;2023-10-19T02:51:42;22.27;;;10.50;;
75386;SDS011;63966;47.914;22.266;2023-10-19T02:55:02;22.97;;;10.80;;
75386;SDS011;63966;47.914;22.266;2023-10-19T02:58:07;20.63;;;10.43;;
75386;SDS011;63966;47.914;22.266;2023-10-19T03:01:13;20.33;;;10.43;;
75386;SDS011;63966;47.914;22.266;2023-10-19T03:04:33;22.63;;;10.43;;
75386;SDS011;63966;47.914;22.266;2023-10-19T03:07:41;20.92;;;10.13;;
75386;SDS011;63966;47.914;22.266;2023-10-19T03:10:49;26.17;;;10.40;;
75386;SDS011;63966;47.914;22.266;2023-10-19T03:14:11;21.13;;;10.10;;
75386;SDS011;63966;47.914;22.266;2023-10-19T03:17:20;21.40;;;10.18;;
75386;SDS011;63966;47.914;22.266;2023-10-19T03:20:28;22.05;;;10.15;;
75386;SDS011;63966;47.914;22.266;2023-10-19T03:23:39;19.77;;;9.98;;
75386;SDS011;63966;47.914;22.266;2023-10-19T03:26:43;21.07;;;10.03;;
75386;SDS011;63966;47.914;22.266;2023-10-19T03:29:53;20.92;;;9.88;;
75386;SDS011;63966;47.914;22.266;2023-10-19T03:32:57;19.83;;;9.30;;
75386;SDS011;63966;47.914;22.266;2023-10-19T03:36:02;21.13;;;10.18;;
75386;SDS011;63966;47.914;22.266;2023-10-19T03:39:11;21.98;;;9.95;;
75386;SDS011;63966;47.914;22.266;2023-10-19T03:42:20;17.80;;;8.80;;
75386;SDS011;63966;47.914;22.266;2023-10-19T03:45:27;19.70;;;8.43;;
75386;SDS011;63966;47.914;22.266;2023-10-19T03:48:36;16.65;;;8.13;;
75386;SDS011;63966;47.914;22.266;2023-10-19T03:51:41;20.77;;;8.98;;
75386;SDS011;63966;47.914;22.266;2023-10-19T03:55:03;19.27;;;8.40;;
75386;SDS011;63966;47.914;22.266;2023-10-19T03:58:14;18.30;;;8.83;;
75386;SDS011;63966;47.914;22.266;2023-10-19T04:01:17;17.67;;;8.23;;
75386;SDS011;63966;47.914;22.266;2023-10-19T04:04:21;16.65;;;8.18;;
75386;SDS011;63966;47.914;22.266;2023-10-19T04:07:25;16.23;;;8.50;;
75386;SDS011;63966;47.914;22.266;2023-10-19T04:10:29;18.60;;;7.55;;
75386;SDS011;63966;47.914;22.266;2023-10-19T04:13:41;15.50;;;6.83;;
75386;SDS011;63966;47.914;22.266;2023-10-19T04:16:45;19.13;;;8.55;;
75386;SDS011;63966;47.914;22.266;2023-10-19T04:19:51;17.52;;;7.63;;
75386;SDS011;63966;47.914;22.266;2023-10-19T04:22:55;17.45;;;7.82;;
75386;SDS011;63966;47.914;22.266;2023-10-19T04:26:01;16.08;;;7.32;;
75386;SDS011;63966;47.914;22.266;2023-10-19T04:29:13;16.20;;;6.77;;
75386;SDS011;63966;47.914;22.266;2023-10-19T04:32:19;18.20;;;8.27;;
75386;SDS011;63966;47.914;22.266;2023-10-19T04:35:27;16.48;;;7.80;;
75386;SDS011;63966;47.914;22.266;2023-10-19T04:38:38;14.95;;;7.63;;
75386;SDS011;63966;47.914;22.266;2023-10-19T04:41:42;15.88;;;6.78;;
75386;SDS011;63966;47.914;22.266;2023-10-19T04:44:48;15.10;;;6.90;;
75386;SDS011;63966;47.914;22.266;2023-10-19T04:47:52;13.10;;;6.80;;
75386;SDS011;63966;47.914;22.266;2023-10-19T04:50:57;18.90;;;7.72;;
75386;SDS011;63966;47.914;22.266;2023-10-19T04:54:01;11.88;;;6.18;;
75386;SDS011;63966;47.914;22.266;2023-10-19T04:57:04;13.18;;;5.13;;
75386;SDS011;63966;47.914;22.266;2023-10-19T05:00:08;17.67;;;6.57;;
75386;SDS011;63966;47.914;22.266;2023-10-19T05:03:16;17.35;;;6.13;;
75386;SDS011;63966;47.914;22.266;2023-10-19T05:06:21;17.42;;;7.80;;
75386;SDS011;63966;47.914;22.266;2023-10-19T05:09:24;13.73;;;7.07;;
75386;SDS011;63966;47.914;22.266;2023-10-19T05:12:28;17.67;;;7.10;;
75386;SDS011;63966;47.914;22.266;2023-10-19T05:15:31;13.17;;;6.67;;
75386;SDS011;63966;47.914;22.266;2023-10-19T05:18:36;13.90;;;6.60;;
75386;SDS011;63966;47.914;22.266;2023-10-19T05:21:40;14.63;;;6.88;;
75386;SDS011;63966;47.914;22.266;2023-10-19T05:24:45;13.48;;;6.75;;
75386;SDS011;63966;47.914;22.266;2023-10-19T05:27:50;14.48;;;6.32;;
75386;SDS011;63966;47.914;22.266;2023-10-19T05:30:53;18.53;;;7.40;;
75386;SDS011;63966;47.914;22.266;2023-10-19T05:33:57;15.23;;;6.07;;
75386;SDS011;63966;47.914;22.266;2023-10-19T05:37:00;12.23;;;6.45;;
75386;SDS011;63966;47.914;22.266;2023-10-19T05:40:08;14.23;;;6.60;;
75386;SDS011;63966;47.914;22.266;2023-10-19T05:43:15;13.57;;;6.10;;
75386;SDS011;63966;47.914;22.266;2023-10-19T05:46:19;16.93;;;7.03;;
75386;SDS011;63966;47.914;22.266;2023-10-19T05:49:25;13.05;;;5.15;;
75386;SDS011;63966;47.914;22.266;2023-10-19T05:52:31;15.93;;;6.88;;
75386;SDS011;63966;47.914;22.266;2023-10-19T05:55:35;11.18;;;5.22;;
75386;SDS011;63966;47.914;22.266;2023-10-19T05:58:38;13.32;;;6.10;;
75386;SDS011;63966;47.914;22.266;2023-10-19T06:01:43;16.10;;;7.47;;
75386;SDS011;63966;47.914;22.266;2023-10-19T06:04:54;19.45;;;7.25;;
75386;SDS011;63966;47.914;22.266;2023-10-19T06:07:59;15.55;;;7.50;;
75386;SDS011;63966;47.914;22.266;2023-10-19T06:11:03;13.30;;;6.85;;
75386;SDS011;63966;47.914;22.266;2023-10-19T06:14:09;9.60;;;4.63;;
75386;SDS011;63966;47.914;22.266;2023-10-19T06:17:13;11.03;;;5.60;;
75386;SDS011;63966;47.914;22.266;2023-10-19T06:20:22;11.63;;;5.78;;
75386;SDS011;63966;47.914;22.266;2023-10-19T06:23:28;15.15;;;5.82;;
75386;SDS011;63966;47.914;22.266;2023-10-19T06:26:33;14.77;;;7.20;;
75386;SDS011;63966;47.914;22.266;2023-10-19T06:29:36;13.32;;;6.35;;
75386;SDS011;63966;47.914;22.266;2023-10-19T06:32:40;11.90;;;6.27;;
75386;SDS011;63966;47.914;22.266;2023-10-19T06:35:44;18.58;;;7.78;;
75386;SDS011;63966;47.914;22.266;2023-10-19T06:38:47;15.02;;;6.70;;
75386;SDS011;63966;47.914;22.266;2023-10-19T06:41:53;18.23;;;7.75;;
75386;SDS011;63966;47.914;22.266;2023-10-19T06:44:56;15.48;;;7.47;;
75386;SDS011;63966;47.914;22.266;2023-10-19T06:48:06;15.17;;;7.80;;
75386;SDS011;63966;47.914;22.266;2023-10-19T06:51:18;15.10;;;7.35;;
75386;SDS011;63966;47.914;22.266;2023-10-19T06:54:29;14.43;;;7.43;;
75386;SDS011;63966;47.914;22.266;2023-10-19T06:57:34;18.35;;;8.10;;
75386;SDS011;63966;47.914;22.266;2023-10-19T07:00:37;15.27;;;7.50;;
75386;SDS011;63966;47.914;22.266;2023-10-19T07:03:48;16.90;;;7.20;;
75386;SDS011;63966;47.914;22.266;2023-10-19T07:06:56;16.85;;;7.28;;
75386;SDS011;63966;47.914;22.266;2023-10-19T07:09:59;16.73;;;7.85;;
75386;SDS011;63966;47.914;22.266;2023-10-19T07:13:05;18.70;;;9.05;;
75386;SDS011;63966;47.914;22.266;2023-10-19T07:16:12;16.65;;;8.13;;
75386;SDS011;63966;47.914;22.266;2023-10-19T07:19:16;14.27;;;6.87;;
75386;SDS011;63966;47.914;22.266;2023-10-19T07:22:21;14.90;;;7.72;;
75386;SDS011;63966;47.914;22.266;2023-10-19T07:25:25;15.38;;;7.25;;
75386;SDS011;63966;47.914;22.266;2023-10-19T07:28:28;14.85;;;7.28;;
75386;SDS011;63966;47.914;22.266;2023-10-19T07:31:33;19.77;;;8.73;;
75386;SDS011;63966;47.914;22.266;2023-10-19T07:34:37;16.83;;;7.23;;
75386;SDS011;63966;47.914;22.266;2023-10-19T07:37:40;17.67;;;7.70;;
75386;SDS011;63966;47.914;22.266;2023-10-19T07:40:45;15.07;;;7.45;;
75386;SDS011;63966;47.914;22.266;2023-10-19T07:43:49;16.08;;;8.77;;
75386;SDS011;63966;47.914;22.266;2023-10-19T07:46:53;15.55;;;7.95;;
75386;SDS011;63966;47.914;22.266;2023-10-19T07:49:56;17.00;;;8.50;;
75386;SDS011;63966;47.914;22.266;2023-10-19T07:53:02;17.02;;;8.18;;
75386;SDS011;63966;47.914;22.266;2023-10-19T07:56:05;18.15;;;8.05;;
75386;SDS011;63966;47.914;22.266;2023-10-19T07:59:09;16.98;;;8.15;;
75386;SDS011;63966;47.914;22.266;2023-10-19T08:02:16;12.82;;;7.25;;
75386;SDS011;63966;47.914;22.266;2023-10-19T08:05:20;16.40;;;7.97;;
75386;SDS011;63966;47.914;22.266;2023-10-19T08:08:25;17.35;;;8.05;;
75386;SDS011;63966;47.914;22.266;2023-10-19T08:11:35;15.38;;;7.85;;
75386;SDS011;63966;47.914;22.266;2023-10-19T08:14:39;19.60;;;8.30;;
75386;SDS011;63966;47.914;22.266;2023-10-19T08:17:45;17.02;;;8.20;;
75386;SDS011;63966;47.914;22.266;2023-10-19T08:20:50;14.10;;;6.83;;
75386;SDS011;63966;47.914;22.266;2023-10-19T08:23:53;15.55;;;7.75;;
75386;SDS011;63966;47.914;22.266;2023-10-19T08:26:58;16.83;;;7.78;;
75386;SDS011;63966;47.914;22.266;2023-10-19T08:30:02;15.32;;;7.90;;
75386;SDS011;63966;47.914;22.266;2023-10-19T08:33:06;15.98;;;8.10;;
75386;SDS011;63966;47.914;22.266;2023-10-19T08:36:15;16.13;;;7.83;;
75386;SDS011;63966;47.914;22.266;2023-10-19T08:39:23;17.85;;;8.27;;
75386;SDS011;63966;47.914;22.266;2023-10-19T08:42:26;15.65;;;7.53;;
75386;SDS011;63966;47.914;22.266;2023-10-19T08:45:32;14.55;;;8.30;;
75386;SDS011;63966;47.914;22.266;2023-10-19T08:48:37;16.33;;;7.40;;
75386;SDS011;63966;47.914;22.266;2023-10-19T08:51:44;16.47;;;7.70;;
75386;SDS011;63966;47.914;22.266;2023-10-19T08:54:48;16.10;;;8.27;;
75386;SDS011;63966;47.914;22.266;2023-10-19T08:57:53;18.20;;;9.60;;
75386;SDS011;63966;47.914;22.266;2023-10-19T09:00:56;18.42;;;8.48;;
75386;SDS011;63966;47.914;22.266;2023-10-19T09:04:03;17.77;;;8.82;;
75386;SDS011;63966;47.914;22.266;2023-10-19T09:07:09;18.13;;;8.67;;
75386;SDS011;63966;47.914;22.266;2023-10-19T09:10:17;19.13;;;10.20;;
75386;SDS011;63966;47.914;22.266;2023-10-19T09:13:21;19.05;;;9.52;;
75386;SDS011;63966;47.914;22.266;2023-10-19T09:16:28;20.08;;;9.63;;
75386;SDS011;63966;47.914;22.266;2023-10-19T09:19:37;18.88;;;10.90;;
75386;SDS011;63966;47.914;22.266;2023-10-19T09:22:40;20.50;;;9.57;;
75386;SDS011;63966;47.914;22.266;2023-10-19T09:25:50;23.02;;;11.60;;
75386;SDS011;63966;47.914;22.266;2023-10-19T09:28:59;19.08;;;10.98;;
75386;SDS011;63966;47.914;22.266;2023-10-19T09:32:03;23.08;;;10.75;;
75386;SDS011;63966;47.914;22.266;2023-10-19T09:35:08;21.90;;;11.48;;
75386;SDS011;63966;47.914;22.266;2023-10-19T09:38:17;21.00;;;10.67;;
75386;SDS011;63966;47.914;22.266;2023-10-19T09:41:24;24.58;;;11.45;;
75386;SDS011;63966;47.914;22.266;2023-10-19T09:44:34;22.88;;;11.75;;
75386;SDS011;63966;47.914;22.266;2023-10-19T09:47:48;24.65;;;11.90;;
75386;SDS011;63966;47.914;22.266;2023-10-19T09:50:54;22.60;;;12.63;;
75386;SDS011;63966;47.914;22.266;2023-10-19T09:54:01;25.00;;;12.40;;
75386;SDS011;63966;47.914;22.266;2023-10-19T09:57:10;26.83;;;12.48;;
75386;SDS011;63966;47.914;22.266;2023-10-19T10:00:19;20.95;;;11.02;;
75386;SDS011;63966;47.914;22.266;2023-10-19T10:09:57;20.63;;;11.43;;
75386;SDS011;63966;47.914;22.266;2023-10-19T10:13:35;22.00;;;11.50;;
75386;SDS011;63966;47.914;22.266;2023-10-19T10:16:38;23.13;;;12.40;;
75386;SDS011;63966;47.914;22.266;2023-10-19T10:19:42;22.55;;;11.55;;
75386;SDS011;63966;47.914;22.266;2023-10-19T10:23:14;22.27;;;11.82;;
75386;SDS011;63966;47.914;22.266;2023-10-19T10:26:20;23.03;;;11.27;;
75386;SDS011;63966;47.914;22.266;2023-10-19T10:29:54;24.50;;;11.02;;
75386;SDS011;63966;47.914;22.266;2023-10-19T10:32:59;22.38;;;11.13;;
75386;SDS011;63966;47.914;22.266;2023-10-19T10:36:05;22.30;;;10.00;;
75386;SDS011;63966;47.914;22.266;2023-10-19T10:39:09;20.27;;;10.55;;
75386;SDS011;63966;47.914;22.266;2023-10-19T10:42:17;24.93;;;12.27;;
75386;SDS011;63966;47.914;22.266;2023-10-19T10:45:21;23.88;;;13.25;;
75386;SDS011;63966;47.914;22.266;2023-10-19T10:48:25;22.23;;;12.38;;
75386;SDS011;63966;47.914;22.266;2023-10-19T10:51:28;23.73;;;12.27;;
75386;SDS011;63966;47.914;22.266;2023-10-19T10:54:32;25.17;;;12.80;;
75386;SDS011;63966;47.914;22.266;2023-10-19T10:57:35;23.63;;;12.70;;
75386;SDS011;63966;47.914;22.266;2023-10-19T11:00:42;21.70;;;12.27;;
75386;SDS011;63966;47.914;22.266;2023-10-19T11:03:47;23.33;;;12.85;;
75386;SDS011;63966;47.914;22.266;2023-10-19T11:06:51;22.63;;;11.10;;
75386;SDS011;63966;47.914;22.266;2023-10-19T11:09:59;19.80;;;11.18;;
75386;SDS011;63966;47.914;22.266;2023-10-19T11:13:04;18.50;;;8.57;;
75386;SDS011;63966;47.914;22.266;2023-10-19T11:16:09;21.55;;;11.50;;
75386;SDS011;63966;47.914;22.266;2023-10-19T11:19:12;21.58;;;9.80;;
75386;SDS011;63966;47.914;22.266;2023-10-19T11:22:16;17.60;;;8.85;;
75386;SDS011;63966;47.914;22.266;2023-10-19T11:25:24;20.33;;;10.63;;
75386;SDS011;63966;47.914;22.266;2023-10-19T11:28:32;19.97;;;9.97;;
75386;SDS011;63966;47.914;22.266;2023-10-19T11:31:36;22.02;;;10.23;;
75386;SDS011;63966;47.914;22.266;2023-10-19T11:34:40;19.33;;;9.88;;
75386;SDS011;63966;47.914;22.266;2023-10-19T11:37:47;17.85;;;10.02;;
75386;SDS011;63966;47.914;22.266;2023-10-19T11:40:51;20.02;;;10.40;;
75386;SDS011;63966;47.914;22.266;2023-10-19T11:43:55;18.10;;;9.57;;
75386;SDS011;63966;47.914;22.266;2023-10-19T11:46:59;16.77;;;10.18;;
75386;SDS011;63966;47.914;22.266;2023-10-19T11:50:03;19.02;;;10.13;;
75386;SDS011;63966;47.914;22.266;2023-10-19T11:53:07;19.55;;;9.48;;
75386;SDS011;63966;47.914;22.266;2023-10-19T11:56:18;17.80;;;9.35;;
75386;SDS011;63966;47.914;22.266;2023-10-19T11:59:24;18.70;;;9.97;;
75386;SDS011;63966;47.914;22.266;2023-10-19T12:02:28;16.73;;;8.73;;
75386;SDS011;63966;47.914;22.266;2023-10-19T12:05:33;17.52;;;9.30;;
75386;SDS011;63966;47.914;22.266;2023-10-19T12:08:39;18.55;;;10.60;;
75386;SDS011;63966;47.914;22.266;2023-10-19T12:11:43;17.13;;;8.75;;
75386;SDS011;63966;47.914;22.266;2023-10-19T12:14:49;17.00;;;8.57;;
75386;SDS011;63966;47.914;22.266;2023-10-19T12:17:56;17.45;;;8.10;;
75386;SDS011;63966;47.914;22.266;2023-10-19T12:20:59;14.48;;;8.23;;
75386;SDS011;63966;47.914;22.266;2023-10-19T12:24:03;17.58;;;8.90;;
75386;SDS011;63966;47.914;22.266;2023-10-19T12:27:07;14.45;;;7.63;;
75386;SDS011;63966;47.914;22.266;2023-10-19T12:30:10;13.30;;;7.50;;
75386;SDS011;63966;47.914;22.266;2023-10-19T12:33:24;14.50;;;6.88;;
75386;SDS011;63966;47.914;22.266;2023-10-19T12:36:29;13.05;;;5.85;;
75386;SDS011;63966;47.914;22.266;2023-10-19T12:39:51;15.02;;;7.40;;
75386;SDS011;63966;47.914;22.266;2023-10-19T12:42:57;11.00;;;5.93;;
75386;SDS011;63966;47.914;22.266;2023-10-19T12:46:02;13.97;;;7.00;;
75386;SDS011;63966;47.914;22.266;2023-10-19T12:49:05;14.68;;;6.40;;
75386;SDS011;63966;47.914;22.266;2023-10-19T12:52:16;10.13;;;5.35;;
75386;SDS011;63966;47.914;22.266;2023-10-19T12:55:20;13.32;;;6.40;;
75386;SDS011;63966;47.914;22.266;2023-10-19T12:58:24;11.23;;;5.95;;
75386;SDS011;63966;47.914;22.266;2023-10-19T13:01:29;9.40;;;4.97;;
75386;SDS011;63966;47.914;22.266;2023-10-19T13:04:36;9.18;;;4.70;;
75386;SDS011;63966;47.914;22.266;2023-10-19T13:07:40;10.45;;;5.82;;
75386;SDS011;63966;47.914;22.266;2023-10-19T13:10:44;11.40;;;6.20;;
75386;SDS011;63966;47.914;22.266;2023-10-19T13:13:54;10.10;;;5.35;;
75386;SDS011;63966;47.914;22.266;2023-10-19T13:16:58;12.93;;;5.77;;
75386;SDS011;63966;47.914;22.266;2023-10-19T13:20:01;13.15;;;6.30;;
75386;SDS011;63966;47.914;22.266;2023-10-19T13:23:18;11.98;;;6.00;;
75386;SDS011;63966;47.914;22.266;2023-10-19T13:26:25;11.65;;;6.40;;
75386;SDS011;63966;47.914;22.266;2023-10-19T13:29:28;12.55;;;5.88;;
75386;SDS011;63966;47.914;22.266;2023-10-19T13:32:37;11.63;;;6.33;;
75386;SDS011;63966;47.914;22.266;2023-10-19T13:35:42;14.68;;;6.20;;
75386;SDS011;63966;47.914;22.266;2023-10-19T13:38:47;12.57;;;6.15;;
75386;SDS011;63966;47.914;22.266;2023-10-19T13:41:51;15.48;;;6.00;;
75386;SDS011;63966;47.914;22.266;2023-10-19T13:44:54;11.48;;;5.97;;
75386;SDS011;63966;47.914;22.266;2023-10-19T13:47:59;11.97;;;6.77;;
75386;SDS011;63966;47.914;22.266;2023-10-19T13:51:03;12.18;;;5.85;;
75386;SDS011;63966;47.914;22.266;2023-10-19T13:54:17;11.30;;;5.50;;
75386;SDS011;63966;47.914;22.266;2023-10-19T13:57:21;10.98;;;5.78;;
75386;SDS011;63966;47.914;22.266;2023-10-19T14:00:25;11.80;;;6.07;;
75386;SDS011;63966;47.914;22.266;2023-10-19T14:03:37;12.10;;;5.90;;
75386;SDS011;63966;47.914;22.266;2023-10-19T14:06:41;13.48;;;5.82;;
75386;SDS011;63966;47.914;22.266;2023-10-19T14:09:45;14.05;;;6.28;;
75386;SDS011;63966;47.914;22.266;2023-10-19T14:12:49;11.75;;;6.25;;
75386;SDS011;63966;47.914;22.266;2023-10-19T14:15:56;13.13;;;5.88;;
75386;SDS011;63966;47.914;22.266;2023-10-19T14:18:59;12.67;;;5.70;;
75386;SDS011;63966;47.914;22.266;2023-10-19T14:22:05;14.13;;;6.80;;
75386;SDS011;63966;47.914;22.266;2023-10-19T14:25:10;13.60;;;6.72;;
75386;SDS011;63966;47.914;22.266;2023-10-19T14:28:15;11.85;;;6.63;;
75386;SDS011;63966;47.914;22.266;2023-10-19T14:31:18;17.42;;;6.68;;
75386;SDS011;63966;47.914;22.266;2023-10-19T14:34:22;13.43;;;6.27;;
75386;SDS011;63966;47.914;22.266;2023-10-19T14:37:26;12.65;;;6.53;;
75386;SDS011;63966;47.914;22.266;2023-10-19T14:40:29;13.13;;;7.32;;
75386;SDS011;63966;47.914;22.266;2023-10-19T14:43:32;13.45;;;6.50;;
75386;SDS011;63966;47.914;22.266;2023-10-19T14:46:36;13.32;;;7.18;;
75386;SDS011;63966;47.914;22.266;2023-10-19T14:49:39;12.67;;;6.90;;
75386;SDS011;63966;47.914;22.266;2023-10-19T14:52:45;13.40;;;6.25;;
75386;SDS011;63966;47.914;22.266;2023-10-19T14:55:50;14.00;;;6.80;;
75386;SDS011;63966;47.914;22.266;2023-10-19T14:58:53;14.15;;;7.60;;
75386;SDS011;63966;47.914;22.266;2023-10-19T15:01:57;12.65;;;6.50;;
75386;SDS011;63966;47.914;22.266;2023-10-19T15:05:01;17.17;;;7.63;;
75386;SDS011;63966;47.914;22.266;2023-10-19T15:08:07;16.60;;;7.80;;
75386;SDS011;63966;47.914;22.266;2023-10-19T15:11:15;20.00;;;10.30;;
75386;SDS011;63966;47.914;22.266;2023-10-19T15:14:20;18.85;;;9.32;;
75386;SDS011;63966;47.914;22.266;2023-10-19T15:17:23;13.70;;;7.97;;
75386;SDS011;63966;47.914;22.266;2023-10-19T15:20:28;19.80;;;7.87;;
75386;SDS011;63966;47.914;22.266;2023-10-19T15:23:32;14.15;;;7.43;;
75386;SDS011;63966;47.914;22.266;2023-10-19T15:26:35;16.23;;;7.75;;
75386;SDS011;63966;47.914;22.266;2023-10-19T15:29:39;14.75;;;7.55;;
75386;SDS011;63966;47.914;22.266;2023-10-19T15:32:43;17.52;;;8.27;;
75386;SDS011;63966;47.914;22.266;2023-10-19T15:35:49;17.80;;;8.53;;
75386;SDS011;63966;47.914;22.266;2023-10-19T15:38:53;14.05;;;7.63;;
75386;SDS011;63966;47.914;22.266;2023-10-19T15:41:58;14.93;;;7.90;;
75386;SDS011;63966;47.914;22.266;2023-10-19T15:45:04;15.80;;;7.65;;
75386;SDS011;63966;47.914;22.266;2023-10-19T15:48:08;17.27;;;8.27;;
75386;SDS011;63966;47.914;22.266;2023-10-19T15:51:16;15.13;;;8.10;;
75386;SDS011;63966;47.914;22.266;2023-10-19T15:54:20;17.15;;;7.63;;
75386;SDS011;63966;47.914;22.266;2023-10-19T15:57:23;16.60;;;8.27;;
75386;SDS011;63966;47.914;22.266;2023-10-19T16:00:27;17.30;;;8.48;;
75386;SDS011;63966;47.914;22.266;2023-10-19T16:03:30;16.75;;;8.55;;
75386;SDS011;63966;47.914;22.266;2023-10-19T16:06:34;20.57;;;8.63;;
75386;SDS011;63966;47.914;22.266;2023-10-19T16:09:38;17.17;;;8.85;;
75386;SDS011;63966;47.914;22.266;2023-10-19T16:12:50;17.08;;;8.52;;
75386;SDS011;63966;47.914;22.266;2023-10-19T16:16:01;16.13;;;8.13;;
75386;SDS011;63966;47.914;22.266;2023-10-19T16:19:05;19.83;;;9.30;;
75386;SDS011;63966;47.914;22.266;2023-10-19T16:22:11;16.67;;;8.33;;
75386;SDS011;63966;47.914;22.266;2023-10-19T16:25:15;16.50;;;8.43;;
75386;SDS011;63966;47.914;22.266;2023-10-19T16:28:19;13.75;;;7.78;;
75386;SDS011;63966;47.914;22.266;2023-10-19T16:31:25;20.00;;;9.43;;
75386;SDS011;63966;47.914;22.266;2023-10-19T16:34:30;17.30;;;9.90;;
75386;SDS011;63966;47.914;22.266;2023-10-19T16:37:34;22.47;;;10.27;;
75386;SDS011;63966;47.914;22.266;2023-10-19T16:40:38;18.80;;;10.25;;
75386;SDS011;63966;47.914;22.266;2023-10-19T16:43:43;17.85;;;10.35;;
75386;SDS011;63966;47.914;22.266;2023-10-19T16:46:47;17.92;;;9.60;;
75386;SDS011;63966;47.914;22.266;2023-10-19T16:49:51;15.07;;;7.85;;
75386;SDS011;63966;47.914;22.266;2023-10-19T16:52:55;16.23;;;8.93;;
75386;SDS011;63966;47.914;22.266;2023-10-19T16:56:00;16.58;;;8.95;;
75386;SDS011;63966;47.914;22.266;2023-10-19T16:59:05;15.48;;;8.77;;
75386;SDS011;63966;47.914;22.266;2023-10-19T17:02:12;16.10;;;8.93;;
75386;SDS011;63966;47.914;22.266;2023-10-19T17:05:15;17.25;;;8.93;;
75386;SDS011;63966;47.914;22.266;2023-10-19T17:08:19;17.53;;;9.00;;
75386;SDS011;63966;47.914;22.266;2023-10-19T17:11:23;17.95;;;9.90;;
75386;SDS011;63966;47.914;22.266;2023-10-19T17:14:27;20.75;;;10.80;;
75386;SDS011;63966;47.914;22.266;2023-10-19T17:17:31;19.13;;;10.25;;
75386;SDS011;63966;47.914;22.266;2023-10-19T17:20:35;15.50;;;9.30;;
75386;SDS011;63966;47.914;22.266;2023-10-19T17:23:39;20.10;;;10.60;;
75386;SDS011;63966;47.914;22.266;2023-10-19T17:26:48;17.13;;;8.98;;
75386;SDS011;63966;47.914;22.266;2023-10-19T17:29:52;16.33;;;9.07;;
75386;SDS011;63966;47.914;22.266;2023-10-19T17:32:56;17.23;;;8.77;;
75386;SDS011;63966;47.914;22.266;2023-10-19T17:36:12;19.15;;;10.00;;
75386;SDS011;63966;47.914;22.266;2023-10-19T17:39:17;17.63;;;9.27;;
75386;SDS011;63966;47.914;22.266;2023-10-19T17:42:20;19.52;;;9.43;;
75386;SDS011;63966;47.914;22.266;2023-10-19T17:45:25;17.92;;;9.95;;
75386;SDS011;63966;47.914;22.266;2023-10-19T17:48:29;20.60;;;10.57;;
75386;SDS011;63966;47.914;22.266;2023-10-19T17:51:33;20.90;;;10.30;;
75386;SDS011;63966;47.914;22.266;2023-10-19T17:54:37;18.60;;;9.80;;
75386;SDS011;63966;47.914;22.266;2023-10-19T17:57:41;18.08;;;9.18;;
75386;SDS011;63966;47.914;22.266;2023-10-19T18:00:44;21.20;;;9.80;;
75386;SDS011;63966;47.914;22.266;2023-10-19T18:03:48;18.92;;;9.80;;
75386;SDS011;63966;47.914;22.266;2023-10-19T18:06:53;17.33;;;9.30;;
75386;SDS011;63966;47.914;22.266;2023-10-19T18:09:57;20.27;;;11.10;;